createdAt,value
2016-04-22T00:00:43.757Z,1017.67
2016-04-22T00:01:46.713Z,1017.64
2016-04-22T00:02:43.669Z,1017.65
2016-04-22T00:03:46.832Z,1017.61
2016-04-22T00:04:43.573Z,1017.59
2016-04-22T00:05:43.530Z,1017.62
2016-04-22T00:06:46.501Z,1017.62
2016-04-22T00:07:43.442Z,1017.62
2016-04-22T00:08:43.397Z,1017.69
2016-04-22T00:09:43.353Z,1017.61
2016-04-22T00:10:43.309Z,1017.62
2016-04-22T00:11:43.264Z,1017.64
2016-04-22T00:12:43.220Z,1017.66
2016-04-22T00:13:43.177Z,1017.71
2016-04-22T00:14:43.133Z,1017.7
2016-04-22T00:15:43.088Z,1017.64
2016-04-22T00:16:43.028Z,1017.57
2016-04-22T00:17:42.983Z,1017.61
2016-04-22T00:18:42.941Z,1017.64
2016-04-22T00:19:42.896Z,1017.59
2016-04-22T00:20:45.852Z,1017.59
2016-04-22T00:21:42.807Z,1017.6
2016-04-22T00:22:42.763Z,1017.55
2016-04-22T00:23:42.719Z,1017.6
2016-04-22T00:24:42.675Z,1017.62
2016-04-22T00:25:42.834Z,1017.59
2016-04-22T00:26:42.587Z,1017.6
2016-04-22T00:27:42.543Z,1017.59
2016-04-22T00:28:42.498Z,1017.62
2016-04-22T00:29:42.641Z,1017.61
2016-04-22T00:30:42.410Z,1017.59
2016-04-22T00:31:42.366Z,1017.62
2016-04-22T00:32:42.321Z,1017.57
2016-04-22T00:33:42.262Z,1017.56
2016-04-22T00:34:45.217Z,1017.59
2016-04-22T00:35:42.174Z,1017.55
2016-04-22T00:36:42.130Z,1017.52
2016-04-22T00:37:42.196Z,1017.54
2016-04-22T00:38:42.042Z,1017.54
2016-04-22T00:39:41.997Z,1017.54
2016-04-22T00:40:41.954Z,1017.51
2016-04-22T00:41:41.910Z,1017.56
2016-04-22T00:42:44.865Z,1017.59
2016-04-22T00:43:41.820Z,1017.55
2016-04-22T00:44:41.777Z,1017.57
2016-04-22T00:45:41.732Z,1017.59
2016-04-22T00:46:44.688Z,1017.59
2016-04-22T00:47:41.643Z,1017.56
2016-04-22T00:48:41.600Z,1017.54
2016-04-22T00:49:41.555Z,1017.54
2016-04-22T00:50:41.496Z,1017.53
2016-04-22T00:51:41.451Z,1017.55
2016-04-22T00:52:41.423Z,1017.58
2016-04-22T00:53:41.364Z,1017.6
2016-04-22T00:54:41.335Z,1017.54
2016-04-22T00:55:44.275Z,1017.56
2016-04-22T00:56:41.230Z,1017.54
2016-04-22T00:57:41.217Z,1017.46
2016-04-22T00:58:41.142Z,1017.54
2016-04-22T00:59:41.098Z,1017.58
2016-04-22T01:00:41.053Z,1017.54
2016-04-22T01:01:44.010Z,1017.53
2016-04-22T01:02:43.965Z,1017.52
2016-04-22T01:03:40.921Z,1017.52
2016-04-22T01:04:40.877Z,1017.49
2016-04-22T01:05:40.833Z,1017.49
2016-04-22T01:06:40.773Z,1017.51
2016-04-22T01:07:40.932Z,1017.51
2016-04-22T01:08:40.700Z,1017.51
2016-04-22T01:09:40.640Z,1017.5
2016-04-22T01:10:43.612Z,1017.51
2016-04-22T01:11:40.552Z,1017.49
2016-04-22T01:12:40.524Z,1017.53
2016-04-22T01:13:40.463Z,1017.47
2016-04-22T01:14:40.420Z,1017.46
2016-04-22T01:15:40.376Z,1017.39
2016-04-22T01:16:40.331Z,1017.4
2016-04-22T01:17:43.490Z,1017.37
2016-04-22T01:18:40.227Z,1017.43
2016-04-22T01:19:40.198Z,1017.45
2016-04-22T01:20:40.154Z,1017.47
2016-04-22T01:21:40.314Z,1017.45
2016-04-22T01:22:40.067Z,1017.55
2016-04-22T01:23:40.022Z,1017.51
2016-04-22T01:24:39.962Z,1017.58
2016-04-22T01:25:39.934Z,1017.6
2016-04-22T01:26:40.077Z,1017.59
2016-04-22T01:27:42.845Z,1017.62
2016-04-22T01:28:39.786Z,1017.6
2016-04-22T01:29:39.741Z,1017.6
2016-04-22T01:30:42.697Z,1017.61
2016-04-22T01:31:42.653Z,1017.59
2016-04-22T01:32:39.608Z,1017.6
2016-04-22T01:33:39.564Z,1017.61
2016-04-22T01:34:39.520Z,1017.57
2016-04-22T01:35:39.477Z,1017.59
2016-04-22T01:36:39.432Z,1017.6
2016-04-22T01:37:39.372Z,1017.59
2016-04-22T01:38:42.344Z,1017.6
2016-04-22T01:39:39.283Z,1017.59
2016-04-22T01:40:42.255Z,1017.6
2016-04-22T01:41:42.227Z,1017.54
2016-04-22T01:42:42.246Z,1017.55
2016-04-22T01:43:42.310Z,1017.54
2016-04-22T01:44:42.079Z,1017.52
2016-04-22T01:45:48.018Z,1017.51
2016-04-22T01:46:38.974Z,1017.58
2016-04-22T01:47:38.930Z,1017.61
2016-04-22T01:48:38.887Z,1017.63
2016-04-22T01:49:38.842Z,1017.6
2016-04-22T01:50:38.798Z,1017.64
2016-04-22T01:51:38.738Z,1017.63
2016-04-22T01:52:38.709Z,1017.64
2016-04-22T01:53:41.665Z,1017.67
2016-04-22T01:54:38.621Z,1017.69
2016-04-22T01:55:38.577Z,1017.67
2016-04-22T01:56:41.533Z,1017.67
2016-04-22T01:57:38.473Z,1017.66
2016-04-22T01:58:41.444Z,1017.63
2016-04-22T01:59:38.400Z,1017.6
2016-04-22T02:00:38.340Z,1017.62
2016-04-22T02:01:38.297Z,1017.58
2016-04-22T02:02:38.252Z,1017.58
2016-04-22T02:03:38.208Z,1017.59
2016-04-22T02:04:38.164Z,1017.58
2016-04-22T02:05:38.135Z,1017.59
2016-04-22T02:06:38.075Z,1017.64
2016-04-22T02:07:38.031Z,1017.6
2016-04-22T02:08:37.987Z,1017.64
2016-04-22T02:09:37.943Z,1017.62
2016-04-22T02:10:37.883Z,1017.6
2016-04-22T02:11:40.855Z,1017.58
2016-04-22T02:12:37.794Z,1017.54
2016-04-22T02:13:37.750Z,1017.53
2016-04-22T02:14:37.707Z,1017.57
2016-04-22T02:15:37.662Z,1017.55
2016-04-22T02:16:37.618Z,1017.51
2016-04-22T02:17:37.574Z,1017.57
2016-04-22T02:18:37.529Z,1017.56
2016-04-22T02:19:37.485Z,1017.56
2016-04-22T02:20:37.441Z,1017.54
2016-04-22T02:21:40.397Z,1017.54
2016-04-22T02:22:40.353Z,1017.51
2016-04-22T02:23:40.309Z,1017.52
2016-04-22T02:24:46.279Z,1017.52
2016-04-22T02:25:37.220Z,1017.53
2016-04-22T02:26:40.176Z,1017.5
2016-04-22T02:27:37.132Z,1017.48
2016-04-22T02:28:37.072Z,1017.54
2016-04-22T02:29:37.043Z,1017.51
2016-04-22T02:30:36.984Z,1017.5
2016-04-22T02:31:36.939Z,1017.48
2016-04-22T02:32:36.895Z,1017.5
2016-04-22T02:33:39.882Z,1017.48
2016-04-22T02:34:36.806Z,1017.53
2016-04-22T02:35:36.763Z,1017.53
2016-04-22T02:36:36.719Z,1017.51
2016-04-22T02:37:36.674Z,1017.56
2016-04-22T02:38:36.630Z,1017.56
2016-04-22T02:39:36.586Z,1017.52
2016-04-22T02:40:36.557Z,1017.56
2016-04-22T02:41:36.497Z,1017.57
2016-04-22T02:42:36.453Z,1017.58
2016-04-22T02:43:36.394Z,1017.55
2016-04-22T02:44:36.568Z,1017.51
2016-04-22T02:45:36.305Z,1017.5
2016-04-22T02:46:36.307Z,1017.51
2016-04-22T02:47:36.248Z,1017.53
2016-04-22T02:48:36.188Z,1017.52
2016-04-22T02:49:36.128Z,1017.53
2016-04-22T02:50:36.084Z,1017.53
2016-04-22T02:51:39.040Z,1017.54
2016-04-22T02:52:35.996Z,1017.51
2016-04-22T02:53:35.951Z,1017.52
2016-04-22T02:54:35.892Z,1017.49
2016-04-22T02:55:35.847Z,1017.49
2016-04-22T02:56:35.898Z,1017.48
2016-04-22T02:57:35.776Z,1017.49
2016-04-22T02:58:35.730Z,1017.5
2016-04-22T02:59:35.671Z,1017.48
2016-04-22T03:00:35.626Z,1017.45
2016-04-22T03:01:35.583Z,1017.41
2016-04-22T03:02:38.554Z,1017.41
2016-04-22T03:03:38.494Z,1017.42
2016-04-22T03:04:35.450Z,1017.4
2016-04-22T03:05:38.405Z,1017.39
2016-04-22T03:06:35.361Z,1017.42
2016-04-22T03:07:35.520Z,1017.36
2016-04-22T03:08:35.272Z,1017.39
2016-04-22T03:09:35.213Z,1017.39
2016-04-22T03:10:35.185Z,1017.36
2016-04-22T03:11:35.141Z,1017.39
2016-04-22T03:12:35.081Z,1017.38
2016-04-22T03:13:35.052Z,1017.41
2016-04-22T03:14:37.993Z,1017.45
2016-04-22T03:15:34.949Z,1017.45
2016-04-22T03:16:37.919Z,1017.45
2016-04-22T03:17:37.876Z,1017.47
2016-04-22T03:18:34.832Z,1017.51
2016-04-22T03:19:34.787Z,1017.53
2016-04-22T03:20:34.727Z,1017.47
2016-04-22T03:21:34.683Z,1017.51
2016-04-22T03:22:34.639Z,1017.52
2016-04-22T03:23:34.595Z,1017.52
2016-04-22T03:24:34.551Z,1017.51
2016-04-22T03:25:37.507Z,1017.51
2016-04-22T03:26:37.463Z,1017.5
2016-04-22T03:27:34.418Z,1017.52
2016-04-22T03:28:37.359Z,1017.5
2016-04-22T03:29:37.329Z,1017.48
2016-04-22T03:30:37.270Z,1017.53
2016-04-22T03:31:34.242Z,1017.52
2016-04-22T03:32:34.181Z,1017.48
2016-04-22T03:33:34.137Z,1017.48
2016-04-22T03:34:37.311Z,1017.48
2016-04-22T03:35:34.049Z,1017.46
2016-04-22T03:36:34.005Z,1017.45
2016-04-22T03:37:33.960Z,1017.46
2016-04-22T03:38:34.120Z,1017.42
2016-04-22T03:39:33.872Z,1017.44
2016-04-22T03:40:33.813Z,1017.4
2016-04-22T03:41:36.784Z,1017.43
2016-04-22T03:42:36.739Z,1017.41
2016-04-22T03:43:33.680Z,1017.38
2016-04-22T03:44:33.636Z,1017.38
2016-04-22T03:45:33.591Z,1017.37
2016-04-22T03:46:33.547Z,1017.42
2016-04-22T03:47:33.503Z,1017.39
2016-04-22T03:48:33.459Z,1017.42
2016-04-22T03:49:33.415Z,1017.41
2016-04-22T03:50:33.370Z,1017.37
2016-04-22T03:51:33.326Z,1017.36
2016-04-22T03:52:36.329Z,1017.35
2016-04-22T03:53:36.254Z,1017.39
2016-04-22T03:54:36.194Z,1017.41
2016-04-22T03:55:33.150Z,1017.36
2016-04-22T03:56:33.090Z,1017.34
2016-04-22T03:57:33.046Z,1017.32
2016-04-22T03:58:33.001Z,1017.33
2016-04-22T03:59:32.957Z,1017.35
2016-04-22T04:00:32.913Z,1017.32
2016-04-22T04:01:33.072Z,1017.35
2016-04-22T04:02:32.825Z,1017.33
2016-04-22T04:03:32.780Z,1017.31
2016-04-22T04:04:35.736Z,1017.31
2016-04-22T04:05:32.692Z,1017.27
2016-04-22T04:06:32.632Z,1017.31
2016-04-22T04:07:32.604Z,1017.34
2016-04-22T04:08:35.544Z,1017.3
2016-04-22T04:09:32.500Z,1017.3
2016-04-22T04:10:35.472Z,1017.32
2016-04-22T04:11:32.411Z,1017.32
2016-04-22T04:12:32.367Z,1017.35
2016-04-22T04:13:32.322Z,1017.29
2016-04-22T04:14:32.279Z,1017.31
2016-04-22T04:15:32.235Z,1017.32
2016-04-22T04:16:32.190Z,1017.32
2016-04-22T04:17:35.146Z,1017.35
2016-04-22T04:18:35.118Z,1017.29
2016-04-22T04:19:32.057Z,1017.3
2016-04-22T04:20:32.013Z,1017.31
2016-04-22T04:21:31.969Z,1017.31
2016-04-22T04:22:31.924Z,1017.34
2016-04-22T04:23:31.918Z,1017.29
2016-04-22T04:24:31.914Z,1017.3
2016-04-22T04:25:31.908Z,1017.32
2016-04-22T04:26:31.903Z,1017.32
2016-04-22T04:27:31.888Z,1017.35
2016-04-22T04:28:31.858Z,1017.36
2016-04-22T04:29:31.876Z,1017.36
2016-04-22T04:30:31.798Z,1017.38
2016-04-22T04:31:34.784Z,1017.39
2016-04-22T04:32:34.734Z,1017.39
2016-04-22T04:33:34.758Z,1017.41
2016-04-22T04:34:40.656Z,1017.37
2016-04-22T04:35:34.617Z,1017.38
2016-04-22T04:36:31.563Z,1017.37
2016-04-22T04:37:31.724Z,1017.4
2016-04-22T04:38:31.479Z,1017.41
2016-04-22T04:39:31.437Z,1017.37
2016-04-22T04:40:31.395Z,1017.37
2016-04-22T04:41:31.353Z,1017.4
2016-04-22T04:42:31.310Z,1017.34
2016-04-22T04:43:31.266Z,1017.34
2016-04-22T04:44:31.222Z,1017.38
2016-04-22T04:45:31.178Z,1017.33
2016-04-22T04:46:34.134Z,1017.39
2016-04-22T04:47:34.090Z,1017.36
2016-04-22T04:48:31.235Z,1017.35
2016-04-22T04:49:30.988Z,1017.39
2016-04-22T04:50:30.960Z,1017.34
2016-04-22T04:51:31.103Z,1017.38
2016-04-22T04:52:33.888Z,1017.4
2016-04-22T04:53:30.813Z,1017.46
2016-04-22T04:54:30.768Z,1017.37
2016-04-22T04:55:30.724Z,1017.41
2016-04-22T04:56:33.695Z,1017.42
2016-04-22T04:57:33.635Z,1017.48
2016-04-22T04:58:30.591Z,1017.46
2016-04-22T04:59:33.546Z,1017.5
2016-04-22T05:00:30.502Z,1017.46
2016-04-22T05:01:33.474Z,1017.49
2016-04-22T05:02:30.617Z,1017.45
2016-04-22T05:03:30.370Z,1017.5
2016-04-22T05:04:30.310Z,1017.54
2016-04-22T05:05:30.282Z,1017.55
2016-04-22T05:06:30.223Z,1017.53
2016-04-22T05:07:30.178Z,1017.56
2016-04-22T05:08:30.134Z,1017.57
2016-04-22T05:09:30.090Z,1017.57
2016-04-22T05:10:30.045Z,1017.58
2016-04-22T05:11:30.002Z,1017.6
2016-04-22T05:12:29.957Z,1017.58
2016-04-22T05:13:32.929Z,1017.55
2016-04-22T05:14:30.057Z,1017.6
2016-04-22T05:15:29.810Z,1017.62
2016-04-22T05:16:29.781Z,1017.6
2016-04-22T05:17:29.924Z,1017.62
2016-04-22T05:18:29.677Z,1017.65
2016-04-22T05:19:29.634Z,1017.59
2016-04-22T05:20:29.589Z,1017.6
2016-04-22T05:21:29.545Z,1017.56
2016-04-22T05:22:29.501Z,1017.61
2016-04-22T05:23:32.456Z,1017.61
2016-04-22T05:24:29.412Z,1017.63
2016-04-22T05:25:29.352Z,1017.61
2016-04-22T05:26:32.323Z,1017.61
2016-04-22T05:27:32.280Z,1017.56
2016-04-22T05:28:29.220Z,1017.57
2016-04-22T05:29:29.191Z,1017.57
2016-04-22T05:30:29.131Z,1017.6
2016-04-22T05:31:29.087Z,1017.61
2016-04-22T05:32:29.043Z,1017.59
2016-04-22T05:33:28.999Z,1017.59
2016-04-22T05:34:29.158Z,1017.62
2016-04-22T05:35:28.910Z,1017.66
2016-04-22T05:36:28.866Z,1017.65
2016-04-22T05:37:28.822Z,1017.64
2016-04-22T05:38:28.778Z,1017.63
2016-04-22T05:39:31.734Z,1017.62
2016-04-22T05:40:28.689Z,1017.6
2016-04-22T05:41:28.630Z,1017.59
2016-04-22T05:42:28.585Z,1017.59
2016-04-22T05:43:28.541Z,1017.61
2016-04-22T05:44:28.497Z,1017.6
2016-04-22T05:45:28.453Z,1017.61
2016-04-22T05:46:28.424Z,1017.6
2016-04-22T05:47:28.365Z,1017.62
2016-04-22T05:48:28.523Z,1017.63
2016-04-22T05:49:28.479Z,1017.62
2016-04-22T05:50:28.229Z,1017.74
2016-04-22T05:51:28.184Z,1017.72
2016-04-22T05:52:28.140Z,1017.71
2016-04-22T05:53:31.099Z,1017.78
2016-04-22T05:54:28.052Z,1017.74
2016-04-22T05:55:27.992Z,1017.77
2016-04-22T05:56:27.948Z,1017.7
2016-04-22T05:57:27.904Z,1017.74
2016-04-22T05:58:27.860Z,1017.83
2016-04-22T05:59:27.817Z,1017.75
2016-04-22T06:00:27.772Z,1017.74
2016-04-22T06:01:30.730Z,1017.78
2016-04-22T06:02:27.886Z,1017.76
2016-04-22T06:03:27.639Z,1017.79
2016-04-22T06:04:27.595Z,1017.79
2016-04-22T06:05:27.536Z,1017.83
2016-04-22T06:06:27.507Z,1017.77
2016-04-22T06:07:27.478Z,1017.85
2016-04-22T06:08:27.419Z,1017.78
2016-04-22T06:09:27.359Z,1017.76
2016-04-22T06:10:27.313Z,1017.75
2016-04-22T06:11:27.270Z,1017.79
2016-04-22T06:12:27.226Z,1017.82
2016-04-22T06:13:27.385Z,1017.86
2016-04-22T06:14:30.157Z,1017.8
2016-04-22T06:15:27.094Z,1017.82
2016-04-22T06:16:27.048Z,1017.81
2016-04-22T06:17:27.036Z,1017.79
2016-04-22T06:18:26.960Z,1017.85
2016-04-22T06:19:26.917Z,1017.87
2016-04-22T06:20:26.872Z,1017.81
2016-04-22T06:21:26.828Z,1017.79
2016-04-22T06:22:26.768Z,1017.79
2016-04-22T06:23:26.739Z,1017.83
2016-04-22T06:24:26.680Z,1017.82
2016-04-22T06:25:26.651Z,1017.83
2016-04-22T06:26:29.595Z,1017.8
2016-04-22T06:27:26.751Z,1017.88
2016-04-22T06:28:29.503Z,1017.85
2016-04-22T06:29:26.459Z,1017.86
2016-04-22T06:30:26.414Z,1017.86
2016-04-22T06:31:26.371Z,1017.88
2016-04-22T06:32:26.311Z,1017.85
2016-04-22T06:33:26.283Z,1017.9
2016-04-22T06:34:26.223Z,1017.91
2016-04-22T06:35:26.178Z,1017.93
2016-04-22T06:36:26.134Z,1017.92
2016-04-22T06:37:26.091Z,1017.88
2016-04-22T06:38:26.046Z,1017.9
2016-04-22T06:39:26.002Z,1017.87
2016-04-22T06:40:28.973Z,1017.9
2016-04-22T06:41:25.913Z,1017.84
2016-04-22T06:42:25.869Z,1017.86
2016-04-22T06:43:25.824Z,1017.85
2016-04-22T06:44:25.780Z,1017.84
2016-04-22T06:45:28.737Z,1017.81
2016-04-22T06:46:25.693Z,1017.8
2016-04-22T06:47:25.663Z,1017.79
2016-04-22T06:48:25.588Z,1017.79
2016-04-22T06:49:25.544Z,1017.84
2016-04-22T06:50:28.516Z,1017.86
2016-04-22T06:51:34.490Z,1017.75
2016-04-22T06:52:25.412Z,1017.84
2016-04-22T06:53:25.367Z,1017.78
2016-04-22T06:54:25.324Z,1017.77
2016-04-22T06:55:25.278Z,1017.78
2016-04-22T06:56:25.234Z,1017.79
2016-04-22T06:57:25.190Z,1017.78
2016-04-22T06:58:25.131Z,1017.74
2016-04-22T06:59:25.103Z,1017.84
2016-04-22T07:00:25.059Z,1017.8
2016-04-22T07:01:25.014Z,1017.8
2016-04-22T07:02:24.953Z,1017.79
2016-04-22T07:03:25.316Z,1017.86
2016-04-22T07:04:27.866Z,1017.92
2016-04-22T07:05:27.822Z,1017.8
2016-04-22T07:06:24.777Z,1017.81
2016-04-22T07:07:24.733Z,1017.78
2016-04-22T07:08:24.689Z,1017.75
2016-04-22T07:09:24.644Z,1017.77
2016-04-22T07:10:26.413Z,1017.78
2016-04-22T07:11:24.557Z,1017.71
2016-04-22T07:12:24.513Z,1017.77
2016-04-22T07:13:24.453Z,1017.74
2016-04-22T07:14:24.440Z,1017.84
2016-04-22T07:15:24.786Z,1017.74
2016-04-22T07:16:24.335Z,1017.7
2016-04-22T07:17:24.276Z,1017.74
2016-04-22T07:18:24.310Z,1017.69
2016-04-22T07:19:27.187Z,1017.67
2016-04-22T07:20:27.159Z,1017.67
2016-04-22T07:21:24.099Z,1017.67
2016-04-22T07:22:24.054Z,1017.7
2016-04-22T07:23:24.010Z,1017.7
2016-04-22T07:24:23.967Z,1017.69
2016-04-22T07:25:23.922Z,1017.66
2016-04-22T07:26:23.878Z,1017.64
2016-04-22T07:27:23.834Z,1017.65
2016-04-22T07:28:23.789Z,1017.64
2016-04-22T07:29:23.933Z,1017.69
2016-04-22T07:30:23.701Z,1017.68
2016-04-22T07:31:23.657Z,1017.69
2016-04-22T07:32:26.614Z,1017.71
2016-04-22T07:33:26.569Z,1017.65
2016-04-22T07:34:23.508Z,1017.75
2016-04-22T07:35:23.481Z,1017.7
2016-04-22T07:36:23.436Z,1017.68
2016-04-22T07:37:23.377Z,1017.69
2016-04-22T07:38:23.333Z,1017.65
2016-04-22T07:39:23.288Z,1017.66
2016-04-22T07:40:23.244Z,1017.67
2016-04-22T07:41:26.216Z,1017.78
2016-04-22T07:42:23.155Z,1017.67
2016-04-22T07:43:26.111Z,1017.71
2016-04-22T07:44:24.396Z,1017.62
2016-04-22T07:45:26.007Z,1017.59
2016-04-22T07:46:22.963Z,1017.63
2016-04-22T07:47:22.935Z,1017.65
2016-04-22T07:48:22.874Z,1017.61
2016-04-22T07:49:22.830Z,1017.62
2016-04-22T07:50:22.787Z,1017.64
2016-04-22T07:51:22.742Z,1017.66
2016-04-22T07:52:22.698Z,1017.63
2016-04-22T07:53:22.654Z,1017.61
2016-04-22T07:54:22.656Z,1017.66
2016-04-22T07:55:22.565Z,1017.61
2016-04-22T07:56:22.506Z,1017.61
2016-04-22T07:57:25.477Z,1017.59
2016-04-22T07:58:22.434Z,1017.62
2016-04-22T07:59:22.390Z,1017.65
2016-04-22T08:00:22.329Z,1017.58
2016-04-22T08:01:22.285Z,1017.63
2016-04-22T08:02:22.240Z,1017.65
2016-04-22T08:03:22.196Z,1017.61
2016-04-22T08:04:22.153Z,1017.55
2016-04-22T08:05:22.312Z,1017.58
2016-04-22T08:06:22.063Z,1017.68
2016-04-22T08:07:22.004Z,1017.6
2016-04-22T08:08:21.960Z,1017.58
2016-04-22T08:09:21.931Z,1017.65
2016-04-22T08:10:21.887Z,1017.6
2016-04-22T08:11:21.843Z,1017.58
2016-04-22T08:12:24.783Z,1017.64
2016-04-22T08:13:21.770Z,1017.66
2016-04-22T08:14:21.757Z,1017.67
2016-04-22T08:15:21.650Z,1017.62
2016-04-22T08:16:21.607Z,1017.57
2016-04-22T08:17:21.562Z,1017.61
2016-04-22T08:18:21.533Z,1017.57
2016-04-22T08:19:21.474Z,1017.63
2016-04-22T08:20:21.899Z,1017.63
2016-04-22T08:21:24.385Z,1017.61
2016-04-22T08:22:21.529Z,1017.56
2016-04-22T08:23:21.297Z,1017.57
2016-04-22T08:24:21.456Z,1017.56
2016-04-22T08:25:21.802Z,1017.54
2016-04-22T08:26:21.165Z,1017.52
2016-04-22T08:27:24.104Z,1017.55
2016-04-22T08:28:24.060Z,1017.49
2016-04-22T08:29:21.017Z,1017.61
2016-04-22T08:30:20.987Z,1017.5
2016-04-22T08:31:20.928Z,1017.51
2016-04-22T08:32:23.884Z,1017.51
2016-04-22T08:33:20.823Z,1017.47
2016-04-22T08:34:20.795Z,1017.44
2016-04-22T08:35:20.767Z,1017.48
2016-04-22T08:36:23.706Z,1017.46
2016-04-22T08:37:20.664Z,1017.46
2016-04-22T08:38:20.619Z,1017.42
2016-04-22T08:39:20.605Z,1017.47
2016-04-22T08:40:20.514Z,1017.48
2016-04-22T08:41:20.470Z,1017.42
2016-04-22T08:42:20.442Z,1017.45
2016-04-22T08:43:20.383Z,1017.43
2016-04-22T08:44:20.338Z,1017.39
2016-04-22T08:45:23.310Z,1017.45
2016-04-22T08:46:20.250Z,1017.5
2016-04-22T08:47:20.205Z,1017.47
2016-04-22T08:48:20.161Z,1017.44
2016-04-22T08:49:20.117Z,1017.44
2016-04-22T08:50:20.057Z,1017.47
2016-04-22T08:51:20.029Z,1017.43
2016-04-22T08:52:20.046Z,1017.47
2016-04-22T08:53:19.925Z,1017.46
2016-04-22T08:54:19.880Z,1017.37
2016-04-22T08:55:19.837Z,1017.31
2016-04-22T08:56:19.793Z,1017.31
2016-04-22T08:57:19.748Z,1017.32
2016-04-22T08:58:19.719Z,1017.28
2016-04-22T08:59:19.675Z,1017.3
2016-04-22T09:00:19.647Z,1017.26
2016-04-22T09:01:19.571Z,1017.32
2016-04-22T09:02:19.512Z,1017.29
2016-04-22T09:03:22.483Z,1017.34
2016-04-22T09:04:19.439Z,1017.37
2016-04-22T09:05:19.426Z,1017.33
2016-04-22T09:06:19.334Z,1017.26
2016-04-22T09:07:19.290Z,1017.28
2016-04-22T09:08:19.247Z,1017.28
2016-04-22T09:09:19.218Z,1017.3
2016-04-22T09:10:19.158Z,1017.31
2016-04-22T09:11:22.317Z,1017.28
2016-04-22T09:12:19.085Z,1017.26
2016-04-22T09:13:19.025Z,1017.29
2016-04-22T09:14:27.996Z,1017.32
2016-04-22T09:15:21.952Z,1017.27
2016-04-22T09:16:18.894Z,1017.31
2016-04-22T09:17:18.833Z,1017.2
2016-04-22T09:18:19.024Z,1017.26
2016-04-22T09:19:18.744Z,1017.2
2016-04-22T09:20:18.716Z,1017.19
2016-04-22T09:21:18.657Z,1017.24
2016-04-22T09:22:18.627Z,1017.17
2016-04-22T09:23:18.590Z,1017.28
2016-04-22T09:24:21.515Z,1017.31
2016-04-22T09:25:18.939Z,1017.29
2016-04-22T09:26:18.520Z,1017.31
2016-04-22T09:27:18.461Z,1017.25
2016-04-22T09:28:21.338Z,1017.29
2016-04-22T09:29:21.326Z,1017.29
2016-04-22T09:30:18.250Z,1017.3
2016-04-22T09:31:18.205Z,1017.19
2016-04-22T09:32:18.162Z,1017.23
2016-04-22T09:33:18.117Z,1017.13
2016-04-22T09:34:18.057Z,1017.17
2016-04-22T09:35:18.686Z,1017.2
2016-04-22T09:36:17.970Z,1017.17
2016-04-22T09:37:18.019Z,1017.22
2016-04-22T09:38:17.914Z,1017.18
2016-04-22T09:39:17.853Z,1017.13
2016-04-22T09:40:18.622Z,1017.1
2016-04-22T09:41:17.764Z,1017.08
2016-04-22T09:42:17.705Z,1017.08
2016-04-22T09:43:17.661Z,1017.08
2016-04-22T09:44:17.616Z,1017.19
2016-04-22T09:45:17.650Z,1017.1
2016-04-22T09:46:17.528Z,1017.13
2016-04-22T09:47:17.516Z,1017.05
2016-04-22T09:48:17.441Z,1017.02
2016-04-22T09:49:20.380Z,1017.15
2016-04-22T09:50:20.492Z,1017.06
2016-04-22T09:51:17.291Z,1017.04
2016-04-22T09:52:17.247Z,1016.96
2016-04-22T09:53:17.203Z,1016.98
2016-04-22T09:54:17.362Z,1016.99
2016-04-22T09:55:17.130Z,1016.98
2016-04-22T09:56:17.071Z,1016.99
2016-04-22T09:57:17.043Z,1016.98
2016-04-22T09:58:17.138Z,1016.94
2016-04-22T09:59:16.938Z,1016.92
2016-04-22T10:00:16.956Z,1016.99
2016-04-22T10:01:17.021Z,1017
2016-04-22T10:02:19.993Z,1016.99
2016-04-22T10:03:16.823Z,1016.92
2016-04-22T10:04:16.718Z,1016.87
2016-04-22T10:05:16.703Z,1016.94
2016-04-22T10:06:16.707Z,1016.89
2016-04-22T10:07:16.569Z,1016.87
2016-04-22T10:13:36.352Z,1016.79
2016-04-22T10:14:36.308Z,1016.68
2016-04-22T10:15:36.265Z,1016.66
2016-04-22T10:16:36.221Z,1016.65
2016-04-22T10:17:36.207Z,1016.68
2016-04-22T10:18:36.132Z,1016.63
2016-04-22T10:19:36.088Z,1016.68
2016-04-22T10:20:36.044Z,1016.64
2016-04-22T10:21:38.984Z,1016.67
2016-04-22T10:22:35.940Z,1016.6
2016-04-22T10:23:36.098Z,1016.57
2016-04-22T10:24:35.851Z,1016.51
2016-04-22T10:25:35.807Z,1016.57
2016-04-22T10:26:35.762Z,1016.5
2016-04-22T10:27:35.718Z,1016.51
2016-04-22T10:28:35.675Z,1016.5
2016-04-22T10:29:35.631Z,1016.57
2016-04-22T10:30:35.586Z,1016.5
2016-04-22T10:31:35.542Z,1016.49
2016-04-22T10:32:38.498Z,1016.47
2016-04-22T10:33:35.454Z,1016.46
2016-04-22T10:34:38.410Z,1016.45
2016-04-22T10:35:35.350Z,1016.46
2016-04-22T10:36:35.321Z,1016.47
2016-04-22T10:37:35.277Z,1016.52
2016-04-22T10:38:38.233Z,1016.52
2016-04-22T10:39:35.173Z,1016.5
2016-04-22T10:40:35.128Z,1016.43
2016-04-22T10:41:35.085Z,1016.45
2016-04-22T10:42:35.041Z,1016.39
2016-04-22T10:43:35.012Z,1016.31
2016-04-22T10:44:34.952Z,1016.36
2016-04-22T10:45:35.111Z,1016.37
2016-04-22T10:46:34.863Z,1016.36
2016-04-22T10:47:34.804Z,1016.34
2016-04-22T10:48:37.775Z,1016.32
2016-04-22T10:49:34.715Z,1016.3
2016-04-22T10:50:37.671Z,1016.3
2016-04-22T10:51:34.626Z,1016.25
2016-04-22T10:52:34.801Z,1016.26
2016-04-22T10:53:34.554Z,1016.29
2016-04-22T10:54:34.510Z,1016.29
2016-04-22T10:55:34.450Z,1016.29
2016-04-22T10:56:34.421Z,1016.25
2016-04-22T10:57:34.362Z,1016.26
2016-04-22T10:58:34.333Z,1016.22
2016-04-22T10:59:34.273Z,1016.17
2016-04-22T11:00:34.245Z,1016.23
2016-04-22T11:01:37.170Z,1016.15
2016-04-22T11:02:34.141Z,1016.11
2016-04-22T11:03:34.097Z,1016.13
2016-04-22T11:04:34.036Z,1016.08
2016-04-22T11:05:37.025Z,1016.12
2016-04-22T11:06:33.949Z,1016.05
2016-04-22T11:07:33.920Z,1016.05
2016-04-22T11:08:33.875Z,1016.01
2016-04-22T11:09:33.831Z,1016.02
2016-04-22T11:10:33.788Z,1016.05
2016-04-22T11:11:33.727Z,1015.98
2016-04-22T11:12:33.699Z,1016
2016-04-22T11:13:33.655Z,1015.92
2016-04-22T11:14:33.595Z,1015.95
2016-04-22T11:15:33.551Z,1015.98
2016-04-22T11:16:33.507Z,1015.85
2016-04-22T11:17:33.477Z,1015.91
2016-04-22T11:18:33.434Z,1015.85
2016-04-22T11:19:33.374Z,1015.89
2016-04-22T11:20:36.361Z,1015.9
2016-04-22T11:21:33.285Z,1015.81
2016-04-22T11:22:33.914Z,1015.8
2016-04-22T11:23:33.392Z,1015.8
2016-04-22T11:24:33.160Z,1015.82
2016-04-22T11:25:33.100Z,1015.78
2016-04-22T11:26:33.259Z,1015.79
2016-04-22T11:27:35.997Z,1015.72
2016-04-22T11:28:35.968Z,1015.71
2016-04-22T11:29:32.906Z,1015.64
2016-04-22T11:30:32.861Z,1015.65
2016-04-22T11:31:32.833Z,1015.68
2016-04-22T11:32:32.789Z,1015.63
2016-04-22T11:33:35.747Z,1015.66
2016-04-22T11:34:32.684Z,1015.66
2016-04-22T11:35:32.640Z,1015.67
2016-04-22T11:36:32.987Z,1015.65
2016-04-22T11:37:32.630Z,1015.65
2016-04-22T11:38:32.507Z,1015.64
2016-04-22T11:39:32.447Z,1015.7
2016-04-22T11:40:32.419Z,1015.64
2016-04-22T11:41:35.377Z,1015.7
2016-04-22T11:42:32.315Z,1015.65
2016-04-22T11:43:32.287Z,1015.75
2016-04-22T11:44:32.243Z,1015.72
2016-04-22T11:45:32.386Z,1015.73
2016-04-22T11:46:32.138Z,1015.69
2016-04-22T11:47:32.547Z,1015.7
2016-04-22T11:48:32.065Z,1015.73
2016-04-22T11:49:32.006Z,1015.71
2016-04-22T11:50:31.962Z,1015.64
2016-04-22T11:51:31.933Z,1015.64
2016-04-22T11:52:31.873Z,1015.71
2016-04-22T11:53:31.845Z,1015.65
2016-04-22T11:54:31.785Z,1015.59
2016-04-22T11:55:31.740Z,1015.61
2016-04-22T11:56:31.712Z,1015.57
2016-04-22T11:57:31.636Z,1015.58
2016-04-22T11:58:31.640Z,1015.59
2016-04-22T11:59:31.548Z,1015.58
2016-04-22T12:00:31.504Z,1015.62
2016-04-22T12:01:31.476Z,1015.62
2016-04-22T12:02:31.416Z,1015.58
2016-04-22T12:03:31.372Z,1015.62
2016-04-22T12:04:31.328Z,1015.59
2016-04-22T12:05:31.283Z,1015.57
2016-04-22T12:06:34.255Z,1015.55
2016-04-22T12:07:31.195Z,1015.55
2016-04-22T12:08:31.150Z,1015.6
2016-04-22T12:09:31.107Z,1015.58
2016-04-22T12:10:31.188Z,1015.52
2016-04-22T12:11:31.002Z,1015.45
2016-04-22T12:12:30.958Z,1015.47
2016-04-22T12:13:30.945Z,1015.41